createdAt,value
2022-11-26T00:00:44.651Z,4.30
2022-11-26T00:03:13.225Z,5.53
2022-11-26T00:05:41.497Z,4.40
2022-11-26T00:08:16.906Z,4.17
2022-11-26T00:11:05.407Z,3.97
2022-11-26T00:13:33.936Z,4.10
2022-11-26T00:16:02.064Z,4.13
2022-11-26T00:18:30.332Z,4.10
2022-11-26T00:21:01.040Z,3.90
2022-11-26T00:23:29.372Z,4.07
2022-11-26T00:25:59.139Z,3.67
2022-11-26T00:28:30.593Z,3.03
2022-11-26T00:31:01.448Z,3.63
2022-11-26T00:33:30.132Z,3.20
2022-11-26T00:35:59.440Z,3.43
2022-11-26T00:38:27.860Z,3.30
2022-11-26T00:40:56.200Z,3.63
2022-11-26T00:43:24.467Z,3.47
2022-11-26T00:45:54.328Z,3.53
2022-11-26T00:48:22.567Z,3.80
2022-11-26T00:50:56.655Z,3.60
2022-11-26T00:53:24.938Z,3.70
2022-11-26T00:55:53.376Z,4.47
2022-11-26T00:58:26.187Z,3.70
2022-11-26T01:01:10.942Z,4.00
2022-11-26T01:03:42.764Z,3.73
2022-11-26T01:06:14.777Z,3.50
2022-11-26T01:08:43.052Z,3.10
2022-11-26T01:11:12.992Z,2.83
2022-11-26T01:13:41.131Z,3.07
2022-11-26T01:16:18.248Z,3.20
2022-11-26T01:18:46.509Z,3.03
2022-11-26T01:21:14.726Z,3.23
2022-11-26T01:23:43.321Z,2.60
2022-11-26T01:26:18.884Z,3.03
2022-11-26T01:28:50.586Z,3.17
2022-11-26T01:31:22.834Z,3.03
2022-11-26T01:33:51.180Z,3.47
2022-11-26T01:36:22.869Z,3.20
2022-11-26T01:38:53.311Z,3.40
2022-11-26T01:41:27.706Z,3.30
2022-11-26T01:43:55.875Z,3.17
2022-11-26T01:46:26.461Z,3.70
2022-11-26T01:49:16.398Z,2.80
2022-11-26T01:51:44.850Z,2.93
2022-11-26T01:54:13.032Z,3.43
2022-11-26T01:56:42.209Z,3.37
2022-11-26T01:59:18.798Z,2.80
2022-11-26T02:01:48.624Z,3.07
2022-11-26T02:04:17.989Z,3.00
2022-11-26T02:06:47.098Z,2.53
2022-11-26T02:09:18.543Z,3.37
2022-11-26T02:11:48.552Z,3.53
2022-11-26T02:14:18.371Z,3.40
2022-11-26T02:17:25.361Z,3.40
2022-11-26T02:20:32.626Z,2.73
2022-11-26T02:23:41.524Z,3.33
2022-11-26T02:26:48.040Z,3.33
2022-11-26T02:29:25.688Z,3.27
2022-11-26T02:31:58.602Z,3.43
2022-11-26T02:34:30.636Z,3.60
2022-11-26T02:37:05.538Z,3.70
2022-11-26T02:39:34.080Z,4.10
2022-11-26T02:42:04.408Z,3.83
2022-11-26T02:44:35.063Z,3.87
2022-11-26T02:47:11.959Z,3.50
2022-11-26T02:49:40.660Z,3.43
2022-11-26T02:52:08.889Z,4.00
2022-11-26T02:54:37.628Z,4.30
2022-11-26T02:57:08.048Z,3.63
2022-11-26T02:59:36.241Z,3.60
2022-11-26T03:02:06.852Z,3.90
2022-11-26T03:04:39.268Z,4.13
2022-11-26T03:07:08.028Z,3.83
2022-11-26T03:09:42.513Z,3.73
2022-11-26T03:12:10.865Z,4.63
2022-11-26T03:14:39.264Z,3.90
2022-11-26T03:17:13.619Z,4.03
2022-11-26T03:19:44.747Z,4.43
2022-11-26T03:22:13.173Z,3.57
2022-11-26T03:24:41.607Z,4.70
2022-11-26T03:27:09.849Z,3.63
2022-11-26T03:29:38.108Z,3.97
2022-11-26T03:32:07.292Z,4.47
2022-11-26T03:34:35.705Z,4.00
2022-11-26T03:37:05.503Z,4.77
2022-11-26T03:39:33.723Z,4.53
2022-11-26T03:42:02.014Z,5.23
2022-11-26T03:44:30.142Z,5.03
2022-11-26T03:46:58.265Z,5.40
2022-11-26T03:49:26.550Z,5.00
2022-11-26T03:51:54.681Z,5.30
2022-11-26T03:54:29.603Z,4.07
2022-11-26T03:56:57.763Z,4.83
2022-11-26T03:59:25.987Z,5.10
2022-11-26T04:01:54.158Z,5.00
2022-11-26T04:04:22.477Z,4.97
2022-11-26T04:06:56.892Z,4.97
2022-11-26T04:09:25.269Z,4.90
2022-11-26T04:11:54.865Z,5.10
2022-11-26T04:14:23.050Z,5.50
2022-11-26T04:16:51.326Z,5.73
2022-11-26T04:19:19.544Z,4.73
2022-11-26T04:21:47.702Z,5.43
2022-11-26T04:24:15.954Z,5.53
2022-11-26T04:26:50.357Z,5.60
2022-11-26T04:29:20.169Z,5.77
2022-11-26T04:31:48.455Z,5.13
2022-11-26T04:34:16.729Z,5.73
2022-11-26T04:36:44.990Z,5.87
2022-11-26T04:39:13.607Z,5.17
2022-11-26T04:41:42.941Z,5.70
2022-11-26T04:44:11.164Z,5.97
2022-11-26T04:46:40.761Z,6.17
2022-11-26T04:49:10.209Z,6.13
2022-11-26T04:51:38.845Z,6.10
2022-11-26T04:54:12.763Z,5.47
2022-11-26T04:56:41.415Z,5.63
2022-11-26T04:59:11.215Z,5.83
2022-11-26T05:01:40.958Z,6.20
2022-11-26T05:04:09.387Z,5.87
2022-11-26T05:06:37.558Z,5.57
2022-11-26T05:09:05.754Z,5.27
2022-11-26T05:11:33.892Z,6.80
2022-11-26T05:14:02.165Z,5.90
2022-11-26T05:16:30.596Z,6.47
2022-11-26T05:19:00.443Z,6.03
2022-11-26T05:21:30.772Z,6.23
2022-11-26T05:23:58.975Z,6.40
2022-11-26T05:26:27.082Z,5.87
2022-11-26T05:28:55.211Z,6.87
2022-11-26T05:31:23.945Z,7.57
2022-11-26T05:33:55.098Z,7.23
2022-11-26T05:36:27.604Z,7.00
2022-11-26T05:38:55.729Z,7.97
2022-11-26T05:41:26.199Z,8.33
2022-11-26T05:43:57.215Z,7.87
2022-11-26T05:46:26.827Z,7.67
2022-11-26T05:48:55.018Z,8.60
2022-11-26T05:51:24.583Z,7.80
2022-11-26T05:53:52.832Z,8.33
2022-11-26T05:56:20.947Z,8.30
2022-11-26T05:58:49.041Z,7.90
2022-11-26T06:01:17.228Z,9.40
2022-11-26T06:03:45.826Z,8.77
2022-11-26T06:06:14.324Z,7.77
2022-11-26T06:08:44.095Z,7.83
2022-11-26T06:11:13.547Z,8.23
2022-11-26T06:13:41.787Z,9.37
2022-11-26T06:16:10.244Z,9.20
2022-11-26T06:18:41.442Z,9.27
2022-11-26T06:21:09.690Z,10.10
2022-11-26T06:23:37.938Z,9.73
2022-11-26T06:26:10.299Z,9.33
2022-11-26T06:28:39.281Z,10.33
2022-11-26T06:31:08.029Z,10.07
2022-11-26T06:33:36.280Z,9.00
2022-11-26T06:36:05.756Z,8.43
2022-11-26T06:38:33.923Z,9.93
2022-11-26T06:41:12.950Z,8.83
2022-11-26T06:43:41.279Z,9.60
2022-11-26T06:46:11.922Z,9.80
2022-11-26T06:48:40.248Z,10.60
2022-11-26T06:51:20.544Z,9.63
2022-11-26T06:53:48.893Z,9.53
2022-11-26T06:56:31.925Z,10.53
2022-11-26T06:59:03.832Z,9.90
2022-11-26T07:01:33.694Z,10.17
2022-11-26T07:04:02.892Z,9.43
2022-11-26T07:06:31.969Z,10.53
2022-11-26T07:09:02.782Z,10.50
2022-11-26T07:11:40.539Z,9.40
2022-11-26T07:14:12.333Z,10.23
2022-11-26T07:16:40.818Z,8.80
2022-11-26T07:19:12.688Z,10.33
2022-11-26T07:21:47.873Z,5.97
2022-11-26T07:29:14.285Z,7.03
2022-11-26T07:32:05.156Z,6.43
2022-11-26T07:35:32.653Z,6.30
2022-11-26T07:38:37.516Z,6.63
2022-11-26T07:41:23.696Z,6.17
2022-11-26T07:44:10.495Z,6.20
2022-11-26T07:47:00.151Z,5.97
2022-11-26T07:49:32.428Z,7.27
2022-11-26T07:52:04.089Z,7.70
2022-11-26T07:54:32.400Z,6.83
2022-11-26T07:57:02.413Z,7.13
2022-11-26T07:59:33.452Z,7.40
2022-11-26T08:02:01.815Z,6.33
2022-11-26T08:04:35.044Z,6.77
2022-11-26T08:07:06.508Z,7.83
2022-11-26T08:09:38.407Z,8.97
2022-11-26T08:12:11.875Z,6.50
2022-11-26T08:14:42.690Z,7.77
2022-11-26T08:17:13.229Z,8.23
2022-11-26T08:19:43.233Z,8.47
2022-11-26T08:22:20.196Z,5.97
2022-11-26T08:24:54.078Z,8.00
2022-11-26T08:27:24.857Z,7.07
2022-11-26T08:29:57.297Z,7.30
2022-11-26T08:32:32.269Z,7.53
2022-11-26T08:35:08.848Z,6.50
2022-11-26T08:37:42.831Z,7.37
2022-11-26T08:40:13.949Z,9.23
2022-11-26T08:42:48.395Z,7.63
2022-11-26T08:45:17.515Z,8.60
2022-11-26T08:47:51.170Z,8.47
2022-11-26T08:50:26.858Z,8.57
2022-11-26T08:52:56.073Z,8.63
2022-11-26T08:55:53.268Z,8.60
2022-11-26T08:58:20.306Z,8.30
2022-11-26T09:00:54.769Z,8.00
2022-11-26T09:03:23.241Z,6.70
2022-11-26T09:05:58.225Z,7.87
2022-11-26T09:08:33.153Z,7.40
2022-11-26T09:11:02.848Z,9.30
2022-11-26T09:13:42.594Z,8.07
2022-11-26T09:16:19.927Z,8.43
2022-11-26T09:18:50.176Z,7.30
2022-11-26T09:21:29.122Z,7.40
2022-11-26T09:24:01.449Z,8.03
2022-11-26T09:26:35.510Z,6.90
2022-11-26T09:29:08.392Z,7.23
2022-11-26T09:32:22.519Z,7.37
2022-11-26T09:34:49.122Z,6.30
2022-11-26T09:37:25.886Z,7.73
2022-11-26T09:39:58.960Z,7.20
2022-11-26T09:42:36.992Z,6.97
2022-11-26T09:45:18.756Z,7.90
2022-11-26T09:47:52.427Z,8.23
2022-11-26T09:50:45.205Z,8.03
2022-11-26T09:53:37.341Z,7.47
2022-11-26T09:56:15.683Z,7.30
2022-11-26T09:58:52.360Z,7.43
2022-11-26T10:01:26.249Z,7.43
2022-11-26T10:04:00.585Z,6.67
2022-11-26T10:06:47.377Z,7.47
2022-11-26T10:09:34.743Z,7.77
2022-11-26T10:12:26.060Z,9.03
2022-11-26T10:15:16.629Z,6.90
2022-11-26T10:18:04.110Z,8.07
2022-11-26T10:20:51.967Z,5.77
2022-11-26T10:23:31.816Z,6.47
2022-11-26T10:26:10.495Z,6.20
2022-11-26T10:28:44.896Z,5.67
2022-11-26T10:31:20.570Z,6.03
2022-11-26T10:37:13.949Z,6.87
2022-11-26T10:40:04.374Z,5.43
2022-11-26T10:42:50.562Z,6.13
2022-11-26T10:45:45.018Z,6.53
2022-11-26T10:48:31.951Z,6.83
2022-11-26T10:51:21.250Z,4.90
2022-11-26T10:54:19.156Z,5.67
2022-11-26T10:56:59.552Z,5.77
2022-11-26T11:03:14.982Z,6.23
2022-11-26T11:05:53.290Z,5.10
2022-11-26T11:08:59.512Z,5.30
2022-11-26T11:11:47.650Z,4.90
2022-11-26T11:14:30.363Z,5.87
2022-11-26T11:17:15.153Z,5.70
2022-11-26T11:20:20.172Z,5.00
2022-11-26T11:27:08.123Z,4.30
2022-11-26T11:30:13.971Z,6.27
2022-11-26T11:36:01.731Z,4.33
2022-11-26T11:38:43.304Z,5.00
2022-11-26T11:45:30.103Z,5.13
2022-11-26T11:48:46.100Z,4.60
2022-11-26T12:02:21.047Z,5.40
2022-11-26T12:09:35.954Z,5.43
2022-11-26T12:12:49.969Z,4.30
2022-11-26T12:16:06.060Z,4.27
2022-11-26T12:19:56.797Z,3.93
2022-11-26T12:23:10.254Z,4.50
2022-11-26T12:26:27.700Z,5.67
2022-11-26T12:30:04.206Z,5.80
2022-11-26T13:08:57.774Z,6.63
2022-11-26T14:08:56.584Z,3.70
2022-11-26T16:02:59.410Z,4.43
2022-11-26T18:48:15.556Z,4.47
2022-11-26T19:03:24.530Z,3.77
2022-11-26T19:18:42.715Z,11.17
2022-11-26T19:20:44.513Z,7.43
2022-11-26T19:39:31.671Z,4.33
2022-11-26T19:42:55.914Z,5.00
2022-11-26T19:50:10.060Z,5.00
2022-11-26T19:53:26.050Z,5.13
2022-11-26T20:07:37.731Z,13.60
2022-11-26T20:14:40.672Z,8.90
2022-11-26T20:17:55.176Z,6.20
2022-11-26T20:21:06.149Z,5.47
2022-11-26T20:36:02.111Z,5.20
2022-11-26T21:44:52.302Z,5.53
2022-11-26T21:52:54.416Z,6.03
2022-11-26T22:00:40.513Z,5.10
2022-11-26T22:11:45.180Z,4.57
2022-11-26T22:15:36.988Z,4.87
2022-11-26T22:22:13.177Z,5.03
2022-11-26T22:35:57.100Z,5.17
2022-11-26T22:42:52.237Z,4.40
2022-11-26T22:46:25.843Z,5.13
2022-11-26T22:56:18.018Z,4.63
2022-11-26T23:06:35.364Z,5.23
2022-11-26T23:09:46.788Z,4.57
2022-11-26T23:13:02.146Z,4.40
2022-11-26T23:16:19.935Z,4.87
2022-11-26T23:20:23.796Z,4.77
2022-11-26T23:30:51.049Z,3.97
2022-11-26T23:52:43.730Z,4.13
2022-11-26T23:59:28.481Z,3.73
